createdAt,value
2018-06-17T00:03:17.744Z,90.90
2018-06-17T00:08:12.249Z,91.10
2018-06-17T00:13:06.792Z,91.10
2018-06-17T00:18:01.213Z,91.40
2018-06-17T00:22:55.667Z,91.00
2018-06-17T00:27:50.102Z,91.20
2018-06-17T00:32:44.509Z,91.70
2018-06-17T00:37:38.973Z,91.90
2018-06-17T00:42:33.402Z,92.10
2018-06-17T00:47:27.845Z,92.30
2018-06-17T00:52:22.283Z,92.20
2018-06-17T00:57:33.622Z,92.40
2018-06-17T01:02:28.140Z,92.40
2018-06-17T01:07:22.657Z,92.30
2018-06-17T01:12:17.160Z,92.80
2018-06-17T01:17:11.577Z,93.30
2018-06-17T01:22:06.137Z,93.50
2018-06-17T01:27:00.564Z,93.50
2018-06-17T01:31:54.991Z,93.80
2018-06-17T01:36:49.428Z,94.20
2018-06-17T01:41:43.839Z,94.40
2018-06-17T01:46:38.296Z,94.60
2018-06-17T01:51:32.749Z,94.80
2018-06-17T01:56:27.220Z,95.10
2018-06-17T02:01:21.678Z,95.20
2018-06-17T02:06:21.223Z,95.10
2018-06-17T02:11:20.873Z,95.20
2018-06-17T02:16:15.340Z,95.40
2018-06-17T02:21:09.819Z,95.50
2018-06-17T02:26:04.249Z,95.40
2018-06-17T02:30:58.788Z,95.20
2018-06-17T02:35:53.240Z,94.80
2018-06-17T02:40:47.682Z,94.60
2018-06-17T02:45:47.206Z,94.20
2018-06-17T02:50:46.817Z,93.80
2018-06-17T02:55:41.336Z,93.60
2018-06-17T03:00:35.790Z,93.70
2018-06-17T03:05:30.225Z,93.30
2018-06-17T03:10:24.700Z,93.00
2018-06-17T03:15:19.123Z,93.10
2018-06-17T03:20:13.536Z,93.10
2018-06-17T03:25:13.510Z,93.30
2018-06-17T03:30:13.082Z,93.40
2018-06-17T03:35:13.321Z,93.50
2018-06-17T03:40:07.765Z,93.40
2018-06-17T03:45:02.210Z,93.30
2018-06-17T03:49:56.618Z,93.60
2018-06-17T03:54:51.174Z,93.50
2018-06-17T03:59:45.613Z,92.90
2018-06-17T04:04:45.340Z,91.20
2018-06-17T04:09:39.728Z,91.00
2018-06-17T04:14:34.156Z,90.30
2018-06-17T04:24:22.695Z,87.50
2018-06-17T04:29:17.091Z,86.80
2018-06-17T04:34:11.566Z,86.90
2018-06-17T04:39:08.404Z,85.30
2018-06-17T04:44:02.847Z,84.50
2018-06-17T04:48:57.246Z,83.20
2018-06-17T04:53:51.656Z,83.70
2018-06-17T04:58:46.060Z,83.60
2018-06-17T05:03:40.473Z,81.70
2018-06-17T05:08:34.953Z,79.40
2018-06-17T05:13:29.368Z,76.80
2018-06-17T05:18:23.784Z,73.40
2018-06-17T05:23:18.211Z,71.00
2018-06-17T05:28:12.705Z,67.20
2018-06-17T05:33:07.110Z,62.80
2018-06-17T05:38:01.621Z,58.20
2018-06-17T05:42:56.033Z,55.80
2018-06-17T05:47:50.432Z,54.20
2018-06-17T05:52:44.831Z,56.90
2018-06-17T05:57:39.406Z,60.80
2018-06-17T06:07:28.017Z,69.70
2018-06-17T06:12:22.461Z,71.10
2018-06-17T06:17:16.899Z,72.70
2018-06-17T06:27:05.621Z,75.00
2018-06-17T06:32:00.025Z,76.10
2018-06-17T06:36:54.476Z,76.10
2018-06-17T06:41:48.912Z,73.80
2018-06-17T06:46:43.448Z,70.60
2018-06-17T06:51:37.855Z,68.40
2018-06-17T06:56:32.281Z,68.20
2018-06-17T07:01:43.510Z,69.00
2018-06-17T07:06:54.960Z,65.20
2018-06-17T07:11:49.360Z,63.50
2018-06-17T07:17:00.514Z,62.00
2018-06-17T07:23:24.356Z,63.10
2018-06-17T07:30:27.419Z,63.90
2018-06-17T07:35:21.912Z,61.10
2018-06-17T07:40:54.981Z,61.70
2018-06-17T07:45:49.427Z,62.30
2018-06-17T07:51:00.581Z,63.40
2018-06-17T07:55:54.989Z,64.10
2018-06-17T08:00:49.422Z,64.10
2018-06-17T08:05:43.857Z,62.90
2018-06-17T08:10:38.257Z,64.00
2018-06-17T08:15:32.654Z,64.00
2018-06-17T08:20:27.065Z,62.90
2018-06-17T08:25:21.539Z,61.20
2018-06-17T08:30:16.196Z,61.10
2018-06-17T08:35:10.619Z,61.60
2018-06-17T08:40:05.049Z,60.40
2018-06-17T08:44:59.457Z,59.00
2018-06-17T08:49:53.857Z,60.00
2018-06-17T08:54:48.280Z,59.10
2018-06-17T08:59:42.827Z,58.90
2018-06-17T09:04:37.278Z,58.80
2018-06-17T09:09:31.707Z,58.60
2018-06-17T09:14:26.171Z,59.40
2018-06-17T09:19:20.624Z,57.50
2018-06-17T09:24:15.075Z,56.90
2018-06-17T09:29:09.511Z,57.10
2018-06-17T09:34:03.928Z,57.00
2018-06-17T09:38:58.730Z,57.30
2018-06-17T09:43:53.191Z,58.40
2018-06-17T09:53:41.764Z,56.90
2018-06-17T09:58:36.413Z,56.10
2018-06-17T10:03:30.853Z,55.30
2018-06-17T10:08:25.279Z,54.80
2018-06-17T10:13:20.300Z,54.10
2018-06-17T10:18:15.825Z,54.80
2018-06-17T10:23:10.736Z,54.80
2018-06-17T10:28:05.884Z,54.00
2018-06-17T10:33:00.309Z,53.40
2018-06-17T10:37:54.727Z,55.30
2018-06-17T10:42:49.559Z,55.40
2018-06-17T10:47:44.794Z,57.40
2018-06-17T10:52:40.456Z,57.30
2018-06-17T10:57:34.988Z,56.00
2018-06-17T11:02:29.594Z,54.90
2018-06-17T11:07:24.092Z,55.00
2018-06-17T11:12:18.527Z,52.20
2018-06-17T11:17:13.043Z,50.60
2018-06-17T11:22:07.553Z,49.10
2018-06-17T11:27:01.973Z,46.70
2018-06-17T11:31:56.393Z,51.20
2018-06-17T11:36:50.845Z,53.80
2018-06-17T11:41:45.296Z,54.40
2018-06-17T11:46:39.808Z,53.80
2018-06-17T11:51:34.249Z,49.90
2018-06-17T11:56:28.674Z,49.30
2018-06-17T12:01:23.093Z,47.70
2018-06-17T12:06:17.531Z,46.70
2018-06-17T12:11:11.953Z,46.30
2018-06-17T12:16:06.397Z,46.80
2018-06-17T12:21:00.864Z,47.70
2018-06-17T12:25:55.301Z,58.00
2018-06-17T12:30:49.704Z,65.50
2018-06-17T12:35:44.160Z,72.00
2018-06-17T12:40:38.755Z,72.50
2018-06-17T12:45:33.142Z,75.80
2018-06-17T12:50:27.680Z,77.80
2018-06-17T12:55:22.096Z,86.20
2018-06-17T13:00:16.576Z,86.70
2018-06-17T13:05:11.056Z,86.40
2018-06-17T13:10:05.692Z,85.90
2018-06-17T13:15:00.177Z,82.40
2018-06-17T13:19:54.595Z,82.40
2018-06-17T13:24:49.040Z,81.20
2018-06-17T13:29:43.572Z,79.60
2018-06-17T13:34:37.987Z,80.00
2018-06-17T13:39:32.456Z,80.90
2018-06-17T13:44:26.973Z,77.80
2018-06-17T13:49:21.482Z,77.20
2018-06-17T13:54:15.901Z,74.80
2018-06-17T13:59:10.337Z,73.70
2018-06-17T14:04:04.818Z,73.60
2018-06-17T14:08:59.285Z,72.90
2018-06-17T14:13:53.708Z,72.00
2018-06-17T14:18:48.164Z,78.60
2018-06-17T14:23:42.760Z,73.90
2018-06-17T14:28:37.251Z,73.50
2018-06-17T14:33:31.639Z,74.60
2018-06-17T14:38:26.041Z,74.60
2018-06-17T14:43:25.431Z,75.60
2018-06-17T14:48:25.038Z,78.40
2018-06-17T14:53:19.611Z,78.20
2018-06-17T14:58:15.179Z,79.10
2018-06-17T15:03:09.714Z,81.00
2018-06-17T15:08:04.247Z,79.60
2018-06-17T15:12:58.859Z,80.20
2018-06-17T15:17:53.261Z,77.70
2018-06-17T15:22:47.780Z,77.50
2018-06-17T15:27:42.220Z,78.70
2018-06-17T15:37:40.900Z,79.00
2018-06-17T15:42:35.378Z,77.00
2018-06-17T15:47:29.816Z,75.90
2018-06-17T15:52:24.246Z,74.10
2018-06-17T15:57:18.720Z,73.20
2018-06-17T16:02:13.251Z,71.70
2018-06-17T16:07:07.697Z,72.90
2018-06-17T16:12:06.393Z,71.90
2018-06-17T16:17:05.929Z,72.40
2018-06-17T16:22:00.384Z,71.30
2018-06-17T16:26:54.848Z,73.50
2018-06-17T16:31:49.373Z,74.90
2018-06-17T16:36:43.816Z,75.80
2018-06-17T16:41:38.258Z,76.20
2018-06-17T16:46:32.778Z,77.20
2018-06-17T16:51:32.301Z,76.10
2018-06-17T16:56:31.869Z,74.10
2018-06-17T17:01:26.362Z,79.40
2018-06-17T17:06:20.787Z,82.60
2018-06-17T17:11:15.221Z,86.40
2018-06-17T17:16:10.037Z,87.40
2018-06-17T17:21:04.589Z,90.20
2018-06-17T17:25:59.520Z,92.10
2018-06-17T17:30:53.979Z,93.20
2018-06-17T17:35:53.595Z,94.80
2018-06-17T17:40:51.793Z,95.70
2018-06-17T17:45:51.257Z,97.30
2018-06-17T17:50:45.669Z,98.00
2018-06-17T17:55:40.085Z,98.00
2018-06-17T18:00:34.570Z,99.00
2018-06-17T18:05:29.001Z,98.30
2018-06-17T18:15:17.549Z,98.40
2018-06-17T18:20:12.047Z,98.10
2018-06-17T18:25:12.400Z,97.90
2018-06-17T18:30:12.135Z,98.10
2018-06-17T18:35:11.873Z,97.80
2018-06-17T18:40:06.365Z,98.00
2018-06-17T18:45:00.830Z,98.10
2018-06-17T18:49:55.298Z,97.50
2018-06-17T18:54:49.762Z,97.80
2018-06-17T18:59:44.213Z,98.20
2018-06-17T19:09:38.931Z,98.80
2018-06-17T19:14:38.457Z,98.70
2018-06-17T19:19:32.876Z,98.50
2018-06-17T19:24:27.280Z,98.40
2018-06-17T19:29:21.745Z,98.80
2018-06-17T19:34:16.178Z,98.70
2018-06-17T19:39:11.834Z,99.20
2018-06-17T19:44:06.432Z,99.50
2018-06-17T19:49:00.876Z,99.90
2018-06-17T19:54:00.521Z,99.90
2018-06-17T19:59:00.154Z,99.90
2018-06-17T20:03:54.562Z,99.80
2018-06-17T20:08:48.983Z,99.80
2018-06-17T20:13:43.447Z,99.70
2018-06-17T20:18:37.945Z,98.80
2018-06-17T20:23:32.361Z,99.00
2018-06-17T20:28:26.807Z,98.60
2018-06-17T20:33:26.391Z,98.90
2018-06-17T20:38:25.900Z,99.10
2018-06-17T20:43:25.395Z,98.80
2018-06-17T20:48:19.836Z,98.20
2018-06-17T20:53:14.236Z,98.20
2018-06-17T21:03:02.781Z,99.20
2018-06-17T21:07:57.240Z,99.50
2018-06-17T21:12:51.698Z,98.50
2018-06-17T21:17:48.838Z,98.70
2018-06-17T21:22:48.322Z,98.50
2018-06-17T21:32:37.837Z,98.30
2018-06-17T21:37:32.333Z,98.60
2018-06-17T21:42:26.773Z,98.80
2018-06-17T21:47:21.211Z,98.80
2018-06-17T21:52:15.628Z,98.70
2018-06-17T21:57:10.086Z,98.40
2018-06-17T22:02:04.588Z,98.30
2018-06-17T22:11:58.140Z,98.40
2018-06-17T22:16:57.786Z,98.40
2018-06-17T22:21:52.272Z,98.60
2018-06-17T22:26:46.663Z,98.50
2018-06-17T22:31:41.151Z,98.60
2018-06-17T22:36:35.572Z,98.70
2018-06-17T22:41:29.988Z,98.90
2018-06-17T22:46:24.400Z,99.40
2018-06-17T22:51:18.855Z,98.50
2018-06-17T22:56:18.532Z,98.30
2018-06-17T23:01:18.136Z,98.40
2018-06-17T23:06:17.749Z,98.50
2018-06-17T23:11:12.180Z,98.70
2018-06-17T23:16:06.654Z,98.90
2018-06-17T23:21:01.058Z,98.80
2018-06-17T23:25:55.467Z,98.80
2018-06-17T23:30:49.897Z,98.90
2018-06-17T23:35:44.302Z,98.90
2018-06-17T23:40:38.728Z,98.90
2018-06-17T23:45:33.113Z,99.00
2018-06-17T23:50:32.749Z,99.20
2018-06-17T23:55:32.396Z,99.40
